ASA563 PAKT-PAJN
Flight info
| Callsign | ASA563 |
|---|---|
| Flight time | N/A |
| Altitude | 28000 |
| Route | DOOZI2 LVD HOODS SSR |
| Aircraft | B738/M-SDGIJ1LRWY/SB1 |
Departure
| Time | N/A |
|---|---|
| Airport | Ketchikan International Airport (PAKT) |
Arrival
| Time | 2026-04-21 02:01 |
|---|---|
| Airport | Juneau International Airport (PAJN) |
| Time | Latitude | Longitude | Altitude | Speed | Heading |
|---|---|---|---|---|---|
| 2026-04-21 01:37 | 57.04771 | -133.79320 | 28042 ft | 373 kts | 319° |
| 2026-04-21 01:37 | 57.08988 | -133.84595 | 28042 ft | 375 kts | 319° |
| 2026-04-21 01:38 | 57.12720 | -133.89267 | 28055 ft | 372 kts | 319° |
| 2026-04-21 01:38 | 57.17284 | -133.95001 | 28055 ft | 372 kts | 319° |
| 2026-04-21 01:39 | 57.21395 | -134.00183 | 28049 ft | 372 kts | 319° |
| 2026-04-21 01:39 | 57.25399 | -134.05246 | 28049 ft | 373 kts | 319° |
| 2026-04-21 01:40 | 57.29451 | -134.10376 | 28046 ft | 371 kts | 319° |
| 2026-04-21 01:40 | 57.33325 | -134.15299 | 28040 ft | 371 kts | 319° |
| 2026-04-21 01:41 | 57.37486 | -134.20598 | 28033 ft | 372 kts | 319° |
| 2026-04-21 01:41 | 57.41769 | -134.26070 | 28040 ft | 372 kts | 319° |
| 2026-04-21 01:42 | 57.45882 | -134.31337 | 28036 ft | 371 kts | 319° |
| 2026-04-21 01:42 | 57.49961 | -134.36577 | 28041 ft | 372 kts | 319° |
| 2026-04-21 01:43 | 57.54193 | -134.42029 | 28043 ft | 370 kts | 319° |
| 2026-04-21 01:43 | 57.58266 | -134.47292 | 28047 ft | 372 kts | 319° |
| 2026-04-21 01:44 | 57.62373 | -134.52611 | 28029 ft | 368 kts | 319° |
| 2026-04-21 01:44 | 57.64449 | -134.55302 | 27377 ft | 371 kts | 319° |
| 2026-04-21 01:44 | 57.66523 | -134.58002 | 26099 ft | 373 kts | 320° |
| 2026-04-21 01:45 | 57.68501 | -134.60579 | 24919 ft | 373 kts | 319° |
| 2026-04-21 01:45 | 57.70647 | -134.63377 | 23618 ft | 372 kts | 320° |
| 2026-04-21 01:45 | 57.72567 | -134.65884 | 22453 ft | 370 kts | 319° |
| 2026-04-21 01:45 | 57.74483 | -134.68387 | 21315 ft | 367 kts | 319° |
| 2026-04-21 01:46 | 57.76674 | -134.71254 | 20085 ft | 362 kts | 319° |
| 2026-04-21 01:46 | 57.78591 | -134.73761 | 19076 ft | 356 kts | 319° |
| 2026-04-21 01:46 | 57.80464 | -134.76216 | 17996 ft | 352 kts | 319° |
| 2026-04-21 01:46 | 57.82521 | -134.78923 | 16847 ft | 347 kts | 319° |
| 2026-04-21 01:47 | 57.84451 | -134.81467 | 15757 ft | 343 kts | 320° |
| 2026-04-21 01:47 | 57.86036 | -134.83557 | 14865 ft | 339 kts | 320° |
| 2026-04-21 01:47 | 57.88150 | -134.86348 | 13692 ft | 333 kts | 320° |
| 2026-04-21 01:47 | 57.89998 | -134.88794 | 12659 ft | 329 kts | 320° |
| 2026-04-21 01:48 | 57.91716 | -134.91069 | 11821 ft | 322 kts | 321° |
| 2026-04-21 01:48 | 57.93554 | -134.93501 | 11088 ft | 311 kts | 321° |
| 2026-04-21 01:48 | 57.95112 | -134.95564 | 10627 ft | 297 kts | 321° |
| 2026-04-21 01:48 | 57.96590 | -134.97519 | 10397 ft | 279 kts | 321° |
| 2026-04-21 01:49 | 57.98289 | -134.99770 | 10244 ft | 255 kts | 321° |
| 2026-04-21 01:49 | 57.99621 | -135.01543 | 10172 ft | 254 kts | 320° |
| 2026-04-21 01:49 | 58.01100 | -135.03532 | 9912 ft | 254 kts | 320° |
| 2026-04-21 01:49 | 58.02514 | -135.05421 | 9546 ft | 246 kts | 321° |
| 2026-04-21 01:50 | 58.03778 | -135.07108 | 9268 ft | 242 kts | 321° |
| 2026-04-21 01:50 | 58.05174 | -135.08980 | 8936 ft | 249 kts | 321° |
| 2026-04-21 01:50 | 58.06570 | -135.10846 | 8612 ft | 241 kts | 321° |
| 2026-04-21 01:50 | 58.07904 | -135.12630 | 8333 ft | 247 kts | 320° |
| 2026-04-21 01:51 | 58.09307 | -135.14514 | 7922 ft | 249 kts | 321° |
| 2026-04-21 01:51 | 58.10702 | -135.16382 | 7626 ft | 245 kts | 321° |
| 2026-04-21 01:51 | 58.11713 | -135.17737 | 7317 ft | 243 kts | 321° |
| 2026-04-21 01:51 | 58.13184 | -135.19707 | 7024 ft | 233 kts | 320° |
| 2026-04-21 01:52 | 58.14622 | -135.21443 | 6785 ft | 227 kts | 331° |
| 2026-04-21 01:52 | 58.17668 | -135.21323 | 6195 ft | 236 kts | 24° |
| 2026-04-21 01:52 | 58.19013 | -135.19649 | 5952 ft | 237 kts | 41° |
| 2026-04-21 01:53 | 58.19992 | -135.17145 | 5722 ft | 237 kts | 64° |
| 2026-04-21 01:53 | 58.20632 | -135.14293 | 5630 ft | 237 kts | 68° |
| 2026-04-21 01:53 | 58.21251 | -135.11403 | 5577 ft | 236 kts | 67° |
| 2026-04-21 01:53 | 58.21881 | -135.08630 | 5506 ft | 225 kts | 64° |
| 2026-04-21 01:54 | 58.22680 | -135.06099 | 5409 ft | 221 kts | 46° |
| 2026-04-21 01:54 | 58.23927 | -135.04582 | 5224 ft | 219 kts | 12° |
| 2026-04-21 01:54 | 58.25372 | -135.04097 | 4970 ft | 216 kts | 4° |
| 2026-04-21 01:54 | 58.26871 | -135.03735 | 4730 ft | 214 kts | 5° |
| 2026-04-21 01:55 | 58.28335 | -135.03302 | 4499 ft | 212 kts | 6° |
| 2026-04-21 01:55 | 58.29764 | -135.02835 | 4281 ft | 210 kts | 7° |
| 2026-04-21 01:55 | 58.31199 | -135.02370 | 4065 ft | 210 kts | 7° |
| 2026-04-21 01:55 | 58.32593 | -135.01918 | 3852 ft | 206 kts | 7° |
| 2026-04-21 01:56 | 58.33966 | -135.01325 | 3713 ft | 199 kts | 19° |
| 2026-04-21 01:56 | 58.35069 | -134.99886 | 3575 ft | 191 kts | 55° |
| 2026-04-21 01:56 | 58.35587 | -134.97765 | 3476 ft | 182 kts | 80° |
| 2026-04-21 01:56 | 58.35739 | -134.95416 | 3356 ft | 177 kts | 94° |
| 2026-04-21 01:57 | 58.35732 | -134.93184 | 3231 ft | 165 kts | 96° |
| 2026-04-21 01:57 | 58.35721 | -134.90977 | 3095 ft | 167 kts | 94° |
| 2026-04-21 01:57 | 58.35728 | -134.88768 | 2934 ft | 166 kts | 93° |
| 2026-04-21 01:57 | 58.35742 | -134.86604 | 2807 ft | 163 kts | 92° |
| 2026-04-21 01:58 | 58.35744 | -134.84451 | 2695 ft | 163 kts | 94° |
| 2026-04-21 01:58 | 58.35732 | -134.82365 | 2553 ft | 160 kts | 93° |
| 2026-04-21 01:58 | 58.35741 | -134.80307 | 2142 ft | 159 kts | 92° |
| 2026-04-21 01:58 | 58.35760 | -134.78270 | 1913 ft | 153 kts | 92° |
| 2026-04-21 01:59 | 58.35759 | -134.76271 | 1840 ft | 153 kts | 94° |
| 2026-04-21 01:59 | 58.35737 | -134.74278 | 1644 ft | 153 kts | 94° |
| 2026-04-21 01:59 | 58.35722 | -134.72235 | 1354 ft | 157 kts | 92° |
| 2026-04-21 01:59 | 58.35719 | -134.70184 | 1116 ft | 154 kts | 94° |
| 2026-04-21 02:00 | 58.35711 | -134.68181 | 906 ft | 152 kts | 89° |
| 2026-04-21 02:00 | 58.35763 | -134.66193 | 749 ft | 155 kts | 90° |
| 2026-04-21 02:00 | 58.35782 | -134.64298 | 714 ft | 152 kts | 90° |
| 2026-04-21 02:00 | 58.35846 | -134.62247 | 390 ft | 152 kts | 84° |
| 2026-04-21 02:01 | 58.35843 | -134.60289 | 131 ft | 150 kts | 102° |
| 2026-04-21 02:01 | 58.35617 | -134.58473 | 8 ft | 147 kts | 105° |
| 2026-04-21 02:01 | 58.35395 | -134.56915 | 5 ft | 87 kts | 104° |
| 2026-04-21 02:01 | 58.35297 | -134.56190 | 4 ft | 44 kts | 105° |
| 2026-04-21 02:02 | 58.35219 | -134.55635 | 4 ft | 36 kts | 104° |
| 2026-04-21 02:02 | 58.35195 | -134.55325 | 3 ft | 17 kts | 50° |
| 2026-04-21 02:02 | 58.35288 | -134.55345 | 3 ft | 15 kts | 297° |
| 2026-04-21 02:02 | 58.35316 | -134.55537 | 4 ft | 14 kts | 284° |
| 2026-04-21 02:03 | 58.35343 | -134.55725 | 4 ft | 14 kts | 285° |
| 2026-04-21 02:03 | 58.35368 | -134.55911 | 4 ft | 14 kts | 284° |
| 2026-04-21 02:03 | 58.35393 | -134.56091 | 4 ft | 13 kts | 285° |
| 2026-04-21 02:03 | 58.35418 | -134.56268 | 4 ft | 13 kts | 284° |
| 2026-04-21 02:04 | 58.35442 | -134.56441 | 4 ft | 13 kts | 285° |
| 2026-04-21 02:04 | 58.35465 | -134.56612 | 5 ft | 13 kts | 284° |
| 2026-04-21 02:04 | 58.35491 | -134.56793 | 5 ft | 15 kts | 284° |
| 2026-04-21 02:04 | 58.35521 | -134.57011 | 5 ft | 18 kts | 285° |
| 2026-04-21 02:05 | 58.35556 | -134.57260 | 6 ft | 20 kts | 284° |
| 2026-04-21 02:05 | 58.35593 | -134.57532 | 6 ft | 22 kts | 284° |
| 2026-04-21 02:05 | 58.35630 | -134.57800 | 6 ft | 19 kts | 284° |
| 2026-04-21 02:05 | 58.35666 | -134.58050 | 6 ft | 20 kts | 284° |
| 2026-04-21 02:06 | 58.35704 | -134.58315 | 7 ft | 19 kts | 284° |
| 2026-04-21 02:06 | 58.35733 | -134.58542 | 7 ft | 15 kts | 286° |
| 2026-04-21 02:06 | 58.35802 | -134.58588 | 7 ft | 8 kts | 40° |
| 2026-04-21 02:06 | 58.35815 | -134.58517 | 6 ft | 5 kts | 86° |
| 2026-04-21 02:07 | 58.35830 | -134.58460 | 6 ft | 4 kts | 43° |
| 2026-04-21 02:07 | 58.35841 | -134.58437 | 6 ft | 1 kts | 46° |
| 2026-04-21 02:07 | 58.35843 | -134.58432 | 6 ft | 0 kts | 47° |